»·PEaware :: DAL1880 KSLC-KDEN

DAL1880 :: KSLC-KDEN

FLIGHT INFORMATION

Flight Status: Arrived
Operator:
Delta Air Lines
More flights by this operator :: More flights under this callsign
Pilot: Kevin M. (7)
Aircraft: BOEING 737-800
(B738)
More flights by this aircraft type
Origin: KSLC Salt Lake City Intl
United States
Destination: KDEN Denver Intl
United States
More flights between these airports :: More routes between these airports
Route: RUGGD1 PERTY CHE FRNCH3
File this flight plan on PilotEdge
Remarks: first flight in the 737 with the Honeycomb yoke
Altitude:
(Current/Filed)
37,000ft
Speed:
(Current/Filed)
468kts
Departed: 10-Oct-19 10:14 AM
Arrived: 10-Oct-19 11:15 AM
Distance/Time
Traveled:
339nm/1:01
Distance/Time
To Go:
Arrived

Flight Plot

Page will automatically refresh every two minutes.

Flight plan parsing failed; only flown route is shown


Map Options




Map Legend


Flown Route
Filed Route
Departure Airport
Arrival Airport
Navaid (VOR, NDB)
Fix

Horizontal Profiles

Position Reports

Time Latitude Longitude Heading Altitude Ground
Speed
10-Oct-19 09:41 40.788847 -111.980561 263 4235ft 0kts
10-Oct-19 09:42 40.788847 -111.980561 263 4235ft 0kts
10-Oct-19 09:43 40.788847 -111.980561 263 4235ft 0kts
10-Oct-19 09:44 40.788847 -111.980561 263 4235ft 0kts
10-Oct-19 09:45 40.788847 -111.980561 263 4235ft 0kts
10-Oct-19 09:45 40.788847 -111.980561 263 4235ft 0kts
10-Oct-19 09:47 40.788847 -111.980561 263 4235ft 0kts
10-Oct-19 09:48 40.788847 -111.980561 263 4235ft 0kts
10-Oct-19 09:48 40.788847 -111.980561 263 4235ft 0kts
10-Oct-19 09:50 40.788847 -111.980561 263 4235ft 0kts
10-Oct-19 09:51 40.788847 -111.980561 263 4235ft 0kts
10-Oct-19 09:51 40.788847 -111.980561 263 4235ft 0kts
10-Oct-19 09:52 40.788847 -111.980561 263 4235ft 0kts
10-Oct-19 09:54 40.788847 -111.980561 263 4235ft 0kts
10-Oct-19 09:54 40.788847 -111.980561 263 4235ft 0kts
10-Oct-19 09:55 40.788847 -111.980561 263 4235ft 0kts
10-Oct-19 09:56 40.788847 -111.980561 263 4235ft 0kts
10-Oct-19 09:57 40.788847 -111.980561 263 4235ft 0kts
10-Oct-19 09:58 40.788847 -111.980561 263 4235ft 0kts
10-Oct-19 09:59 40.788847 -111.980561 263 4235ft 0kts
10-Oct-19 10:00 40.788847 -111.980560 263 4235ft 0kts
10-Oct-19 10:01 40.788855 -111.980469 263 4235ft 2kts
10-Oct-19 10:02 40.788739 -111.979810 349 4235ft 0kts
10-Oct-19 10:03 40.788659 -111.979803 354 4235ft 0kts
10-Oct-19 10:04 40.788659 -111.979803 354 4235ft 0kts
10-Oct-19 10:05 40.788659 -111.979803 354 4235ft 0kts
10-Oct-19 10:06 40.788659 -111.979803 354 4235ft 0kts
10-Oct-19 10:07 40.788659 -111.979803 354 4235ft 0kts
10-Oct-19 10:08 40.788891 -111.979840 352 4235ft 8kts
10-Oct-19 10:09 40.791389 -111.979551 354 4235ft 16kts
10-Oct-19 10:10 40.788555 -111.976922 175 4235ft 26kts
10-Oct-19 10:11 40.781252 -111.976053 175 4235ft 24kts
10-Oct-19 10:12 40.774997 -111.974857 175 4235ft 14kts
10-Oct-19 10:13 40.778213 -111.973554 354 4235ft 74kts
10-Oct-19 10:14 40.813904 -111.988815 309 5638ft 168kts
10-Oct-19 10:15 40.844230 -112.045502 305 6878ft 223kts
10-Oct-19 10:16 40.885119 -112.121328 307 9204ft 263kts
10-Oct-19 10:17 40.937922 -112.180253 4 11695ft 283kts
10-Oct-19 10:18 40.997482 -112.107395 50 12700ft 355kts
10-Oct-19 10:19 41.057807 -111.991127 60 14256ft 401kts
10-Oct-19 10:20 41.101647 -111.855011 77 16694ft 422kts
10-Oct-19 10:21 41.089372 -111.694210 93 18869ft 448kts
10-Oct-19 10:22 41.070906 -111.527145 93 20883ft 465kts
10-Oct-19 10:23 41.051521 -111.354359 93 22899ft 477kts
10-Oct-19 10:24 41.031716 -111.180316 93 25138ft 480kts
10-Oct-19 10:25 41.011418 -111.004228 94 27070ft 487kts
10-Oct-19 10:26 40.990599 -110.826414 96 29020ft 488kts
10-Oct-19 10:27 40.969348 -110.647635 96 30731ft 492kts
10-Oct-19 10:28 40.947658 -110.467825 96 32344ft 495kts
10-Oct-19 10:29 40.925705 -110.288289 97 33856ft 496kts
10-Oct-19 10:30 40.903565 -110.108732 96 35329ft 494kts
10-Oct-19 10:31 40.881495 -109.932250 96 36612ft 491kts
10-Oct-19 10:32 40.858803 -109.753188 97 37241ft 504kts
10-Oct-19 10:33 40.834724 -109.565634 97 37242ft 530kts
10-Oct-19 10:34 40.809605 -109.373096 97 37242ft 530kts
10-Oct-19 10:35 40.784288 -109.180756 98 37233ft 531kts
10-Oct-19 10:36 40.758663 -108.988435 101 37237ft 529kts
10-Oct-19 10:37 40.732946 -108.798152 102 37253ft 526kts
10-Oct-19 10:38 40.706913 -108.608248 102 37246ft 526kts
10-Oct-19 10:39 40.680566 -108.418592 102 37227ft 526kts
10-Oct-19 10:40 40.654354 -108.231665 102 37217ft 526kts
10-Oct-19 10:41 40.627560 -108.042447 102 37225ft 526kts
10-Oct-19 10:42 40.600404 -107.853135 102 37229ft 526kts
10-Oct-19 10:43 40.576727 -107.690043 102 37232ft 526kts
10-Oct-19 10:44 40.554262 -107.536746 102 37234ft 526kts
10-Oct-19 10:45 40.526423 -107.348226 103 37230ft 526kts
10-Oct-19 10:46 40.512311 -107.157107 95 37203ft 528kts
10-Oct-19 10:47 40.502124 -106.964731 96 37183ft 531kts
10-Oct-19 10:48 40.491394 -106.769670 99 37185ft 534kts
10-Oct-19 10:49 40.480548 -106.578480 99 37189ft 521kts
10-Oct-19 10:50 40.469451 -106.388437 99 37190ft 522kts
10-Oct-19 10:51 40.457736 -106.201067 100 37090ft 515kts
10-Oct-19 10:52 40.444611 -106.009192 102 32716ft 565kts
10-Oct-19 10:53 40.421634 -105.834031 100 22942ft 182kts
10-Oct-19 10:54 40.418392 -105.800082 286 18159ft 187kts
10-Oct-19 10:55 40.401637 -105.713157 105 19916ft 413kts
10-Oct-19 10:56 40.377123 -105.563901 102 19938ft 415kts
10-Oct-19 10:57 40.346908 -105.431420 123 19934ft 358kts
10-Oct-19 10:58 40.287474 -105.327784 134 19957ft 355kts
10-Oct-19 10:59 40.226172 -105.231223 133 19837ft 336kts
10-Oct-19 11:00 40.162757 -105.126138 131 15793ft 378kts
10-Oct-19 11:01 40.099310 -105.027456 135 13965ft 325kts
10-Oct-19 11:02 40.039437 -104.940643 129 13066ft 320kts
10-Oct-19 11:03 39.981213 -104.852618 136 12849ft 323kts
10-Oct-19 11:04 39.900283 -104.808634 176 11892ft 317kts
10-Oct-19 11:05 39.817147 -104.808102 182 10991ft 274kts
10-Oct-19 11:06 39.743025 -104.810134 182 10975ft 265kts
10-Oct-19 11:07 39.669181 -104.812077 182 10968ft 266kts
10-Oct-19 11:08 39.629272 -104.752324 88 10402ft 243kts
10-Oct-19 11:09 39.642665 -104.679474 23 8971ft 210kts
10-Oct-19 11:10 39.698932 -104.662437 1 7949ft 218kts
10-Oct-19 11:11 39.757328 -104.661519 0 6848ft 193kts
10-Oct-19 11:12 39.803879 -104.660874 1 5943ft 146kts
10-Oct-19 11:13 39.841360 -104.660406 0 5410ft 84kts
10-Oct-19 11:14 39.853480 -104.662093 321 5422ft 5kts
10-Oct-19 11:15 39.855429 -104.663482 183 5431ft 12kts

Navigation Log

Ident Type
Flight plan parsing failed, navigation log unavailable